Time;durP1;ratioP1;P1;durP2;ratioP2;P2;SDS_P1;SDS_P2;PMS_P1;PMS_P2;Temp;Humidity;BMP_temperature;BMP_pressure;BME280_temperature;BME280_humidity;BME280_pressure;Samples;Min_cycle;Max_cycle;Signal;HPM_P1;HPM_P2
2023/03/26 00:00:56;;;;;;;9.23;2.03;;;5.40;99.90;;;;;;2077246;28;20719;-61
2023/03/26 00:02:02;;;;;;;7.63;1.30;;;5.30;99.90;;;;;;2081426;28;20208;-60
2023/03/26 00:03:04;;;;;;;5.95;1.58;;;5.30;99.90;;;;;;2068170;28;20342;-62
2023/03/26 00:04:09;;;;;;;6.00;1.92;;;5.40;99.90;;;;;;2072334;28;20182;-61
2023/03/26 00:05:15;;;;;;;3.22;1.30;;;5.40;99.90;;;;;;2073878;28;20311;-61
2023/03/26 00:06:27;;;;;;;5.20;1.40;;;5.50;99.90;;;;;;2077292;28;20189;-64
2023/03/26 00:07:33;;;;;;;7.60;2.28;;;5.60;99.90;;;;;;2078282;28;20189;-64
2023/03/26 00:08:41;;;;;;;5.97;1.50;;;5.50;99.90;;;;;;2077448;28;20572;-63
2023/03/26 00:09:47;;;;;;;4.05;1.80;;;5.40;99.90;;;;;;2076888;28;20192;-60
2023/03/26 00:10:53;;;;;;;5.35;1.55;;;5.30;99.90;;;;;;2077034;28;20826;-63
2023/03/26 00:11:58;;;;;;;6.57;1.73;;;5.40;99.90;;;;;;2076797;28;20185;-64
2023/03/26 00:13:05;;;;;;;4.05;1.55;;;5.40;99.90;;;;;;2076970;28;20694;-61
2023/03/26 00:14:12;;;;;;;5.32;1.55;;;5.50;99.90;;;;;;2077400;28;20199;-60
2023/03/26 00:15:18;;;;;;;5.80;2.28;;;5.50;99.90;;;;;;2081342;28;20169;-59
2023/03/26 00:16:27;;;;;;;3.65;1.75;;;5.50;99.90;;;;;;2077076;28;20216;-61
2023/03/26 00:17:33;;;;;;;6.90;1.88;;;5.60;99.90;;;;;;2077007;28;20212;-62
2023/03/26 00:18:41;;;;;;;6.70;1.45;;;5.60;99.90;;;;;;2078588;28;20189;-61
2023/03/26 00:19:47;;;;;;;5.68;1.38;;;5.70;99.90;;;;;;2068951;28;20183;-62
2023/03/26 00:20:52;;;;;;;4.43;1.60;;;5.80;99.90;;;;;;2069713;28;20185;-61
2023/03/26 00:21:59;;;;;;;3.72;1.40;;;5.70;99.90;;;;;;2076125;28;20194;-61
2023/03/26 00:23:04;;;;;;;4.57;1.52;;;5.70;99.90;;;;;;2076955;28;20205;-61
2023/03/26 00:24:16;;;;;;;5.75;1.45;;;5.80;99.90;;;;;;2076490;28;20303;-61
2023/03/26 00:25:25;;;;;;;4.22;1.85;;;5.80;99.90;;;;;;2076789;28;20201;-61
2023/03/26 00:26:36;;;;;;;3.75;1.50;;;5.80;99.90;;;;;;2076821;28;20194;-61
2023/03/26 00:27:44;;;;;;;5.22;1.80;;;5.70;99.90;;;;;;2079487;28;20184;-62
2023/03/26 00:28:50;;;;;;;5.03;1.60;;;5.80;99.90;;;;;;2076770;28;20193;-61
2023/03/26 00:29:55;;;;;;;5.20;1.80;;;5.70;99.90;;;;;;2076990;28;20186;-61
2023/03/26 00:31:05;;;;;;;7.18;1.55;;;5.60;99.90;;;;;;2076694;28;20808;-61
2023/03/26 00:32:09;;;;;;;5.35;1.60;;;5.60;99.90;;;;;;2076504;28;20212;-61
2023/03/26 00:33:18;;;;;;;5.45;1.35;;;5.50;99.90;;;;;;2076682;28;20301;-61
2023/03/26 00:34:25;;;;;;;4.50;1.55;;;5.50;99.90;;;;;;2076852;28;20212;-61
2023/03/26 00:35:31;;;;;;;7.75;1.80;;;5.50;99.90;;;;;;2068081;28;20182;-61
2023/03/26 00:36:37;;;;;;;5.22;1.70;;;5.40;99.90;;;;;;2069677;28;20217;-61
2023/03/26 00:37:44;;;;;;;6.22;1.77;;;5.40;99.90;;;;;;2076823;28;20173;-62
2023/03/26 00:38:51;;;;;;;4.50;1.50;;;5.50;99.90;;;;;;2076692;28;20227;-61
2023/03/26 00:39:58;;;;;;;7.70;2.00;;;5.50;99.90;;;;;;2076674;28;20542;-61
2023/03/26 00:41:16;;;;;;;12.70;1.70;;;5.50;99.90;;;;;;2076738;28;20909;-61
2023/03/26 00:42:22;;;;;;;5.82;1.70;;;5.60;99.90;;;;;;2076867;28;20174;-61
2023/03/26 00:43:31;;;;;;;4.07;1.38;;;5.50;99.90;;;;;;2076778;28;20189;-61
2023/03/26 00:44:37;;;;;;;7.15;2.17;;;5.50;99.90;;;;;;2076791;28;20263;-61
2023/03/26 00:45:45;;;;;;;5.30;1.73;;;5.50;99.90;;;;;;2076592;28;20186;-62
2023/03/26 00:46:51;;;;;;;7.07;1.70;;;5.50;99.90;;;;;;2076694;28;20664;-61
2023/03/26 00:47:57;;;;;;;5.53;1.60;;;5.40;99.90;;;;;;2076633;28;20185;-61
2023/03/26 00:49:03;;;;;;;5.85;1.80;;;5.40;99.90;;;;;;2076621;28;20216;-60
2023/03/26 00:50:14;;;;;;;4.15;1.80;;;5.40;99.90;;;;;;2076418;28;20201;-61
2023/03/26 00:51:20;;;;;;;6.45;2.05;;;5.50;99.90;;;;;;2079006;28;20184;-61
2023/03/26 00:52:27;;;;;;;5.18;1.70;;;5.50;99.90;;;;;;2076629;28;20220;-61
2023/03/26 00:53:33;;;;;;;5.00;1.77;;;5.40;99.90;;;;;;2076808;28;20263;-61
2023/03/26 00:54:39;;;;;;;9.32;2.53;;;5.30;99.90;;;;;;2076988;28;20413;-61
2023/03/26 00:55:46;;;;;;;3.78;1.67;;;5.30;99.90;;;;;;2076848;28;20189;-61
2023/03/26 00:56:54;;;;;;;5.05;1.58;;;5.40;99.90;;;;;;2077115;28;20196;-61
2023/03/26 00:58:00;;;;;;;7.70;1.70;;;5.40;99.90;;;;;;2079841;28;20173;-61
2023/03/26 00:59:04;;;;;;;8.63;1.50;;;5.40;99.90;;;;;;2076553;28;20181;-62
2023/03/26 01:00:14;;;;;;;6.25;1.92;;;5.50;99.90;;;;;;2076626;28;20197;-61
2023/03/26 01:01:26;;;;;;;7.00;1.77;;;5.50;99.90;;;;;;2076215;28;20189;-61
2023/03/26 01:02:32;;;;;;;6.78;1.80;;;5.50;99.90;;;;;;2076627;28;20185;-61
2023/03/26 01:03:38;;;;;;;5.72;1.83;;;5.50;99.90;;;;;;2076622;28;20190;-61
2023/03/26 01:04:49;;;;;;;2.95;1.70;;;5.40;99.90;;;;;;2076656;28;20177;-61
2023/03/26 01:06:06;;;;;;;5.00;1.77;;;5.40;99.90;;;;;;2067703;28;20264;-62
2023/03/26 01:07:12;;;;;;;2.38;1.42;;;5.40;99.90;;;;;;2070605;28;20854;-61
2023/03/26 01:08:29;;;;;;;3.88;1.80;;;5.50;99.90;;;;;;2075854;28;20216;-61
2023/03/26 01:09:43;;;;;;;3.58;1.60;;;5.40;99.90;;;;;;2076303;28;20180;-61
2023/03/26 01:10:52;;;;;;;6.88;1.60;;;5.40;99.90;;;;;;2075942;28;20200;-61
2023/03/26 01:12:01;;;;;;;5.93;1.75;;;5.40;99.90;;;;;;2067582;28;20175;-61
2023/03/26 01:13:04;;;;;;;7.13;1.92;;;5.30;99.90;;;;;;2069322;28;20278;-61
2023/03/26 01:14:25;;;;;;;6.15;1.75;;;5.40;99.90;;;;;;2076606;28;20190;-61
2023/03/26 01:15:31;;;;;;;7.50;2.13;;;5.40;99.90;;;;;;2069871;28;20185;-61
2023/03/26 01:16:53;;;;;;;8.43;1.98;;;5.30;99.90;;;;;;2069041;28;20699;-61
2023/03/26 01:18:03;;;;;;;6.68;1.98;;;5.30;99.90;;;;;;2077732;28;20217;-62
2023/03/26 01:19:23;;;;;;;5.80;1.80;;;5.30;99.90;;;;;;2076578;28;20281;-61
2023/03/26 01:20:29;;;;;;;7.95;1.73;;;5.30;99.90;;;;;;2067756;28;20197;-61
2023/03/26 01:21:37;;;;;;;9.88;2.05;;;5.30;99.90;;;;;;2069799;28;20725;-61
2023/03/26 01:22:51;;;;;;;4.82;1.80;;;5.20;99.90;;;;;;2079765;28;20203;-61
2023/03/26 01:23:58;;;;;;;7.03;2.55;;;5.20;99.90;;;;;;2083984;28;20181;-62
2023/03/26 01:25:06;;;;;;;11.88;3.13;;;5.20;99.90;;;;;;2081252;28;20209;-61
2023/03/26 01:26:46;;;;;;;8.15;3.00;;;5.10;99.90;;;;;;2077258;28;20181;-60
2023/03/26 01:27:56;;;;;;;8.68;2.90;;;5.10;99.90;;;;;;2080174;28;20181;-61
2023/03/26 01:29:03;;;;;;;7.93;1.98;;;5.20;99.90;;;;;;2076874;28;20181;-61
2023/03/26 01:30:40;;;;;;;4.72;1.92;;;5.20;99.90;;;;;;2076623;28;20197;-61
2023/03/26 01:32:16;;;;;;;3.92;1.80;;;5.20;99.90;;;;;;2077626;28;20252;-62
2023/03/26 01:33:35;;;;;;;3.83;1.80;;;5.20;99.90;;;;;;2078380;28;20217;-63
2023/03/26 01:35:02;;;;;;;6.80;2.00;;;5.20;99.90;;;;;;2068113;28;20184;-61
2023/03/26 01:36:37;;;;;;;5.25;1.95;;;5.10;99.90;;;;;;2073044;28;20177;-62
2023/03/26 01:37:58;;;;;;;7.45;2.08;;;5.00;99.90;;;;;;2070953;28;20193;-62
2023/03/26 01:39:33;;;;;;;5.18;2.03;;;5.00;99.90;;;;;;2073310;28;20212;-63
2023/03/26 01:41:08;;;;;;;6.60;1.70;;;5.00;99.90;;;;;;2060966;28;20198;-62
2023/03/26 01:42:32;;;;;;;11.13;2.22;;;5.00;99.90;;;;;;2078018;28;20208;-62
2023/03/26 01:43:51;;;;;;;12.05;2.05;;;5.00;99.90;;;;;;2073146;28;20198;-62
2023/03/26 01:45:10;;;;;;;5.50;1.95;;;5.10;99.90;;;;;;2064227;28;20329;-62
2023/03/26 01:46:18;;;;;;;10.15;2.17;;;5.10;99.90;;;;;;2072289;28;20188;-62
2023/03/26 01:47:24;;;;;;;3.92;1.92;;;5.10;99.90;;;;;;2069415;28;20178;-62
2023/03/26 01:48:41;;;;;;;3.35;1.80;;;5.20;99.90;;;;;;2071132;28;20567;-62
2023/03/26 01:49:47;;;;;;;3.50;1.77;;;5.10;99.90;;;;;;2077694;28;20268;-62
2023/03/26 01:50:55;;;;;;;10.70;2.03;;;5.20;99.90;;;;;;2077686;28;20196;-62
2023/03/26 01:52:01;;;;;;;5.45;1.67;;;5.20;99.90;;;;;;2077744;28;20193;-63
2023/03/26 01:53:06;;;;;;;5.85;1.88;;;5.10;99.90;;;;;;2077684;28;20203;-62
2023/03/26 01:54:16;;;;;;;4.00;1.77;;;5.10;99.90;;;;;;2077317;28;20201;-62
2023/03/26 01:55:34;;;;;;;10.57;2.15;;;5.10;99.90;;;;;;2069286;28;20276;-62
2023/03/26 01:57:07;;;;;;;6.95;1.92;;;5.00;99.90;;;;;;2072377;28;20225;-62
2023/03/26 01:58:36;;;;;;;10.90;1.77;;;5.00;99.90;;;;;;2078301;28;20208;-62
2023/03/26 02:00:10;;;;;;;5.90;1.83;;;5.00;99.90;;;;;;2070474;28;20260;-62
2023/03/26 02:01:43;;;;;;;7.05;2.55;;;5.00;99.90;;;;;;2073722;28;20265;-62
2023/03/26 02:03:16;;;;;;;6.13;2.10;;;5.00;99.90;;;;;;2072063;28;20185;-62
2023/03/26 02:04:51;;;;;;;7.32;1.65;;;5.00;99.90;;;;;;2072711;28;20655;-63
2023/03/26 02:06:24;;;;;;;5.25;1.80;;;5.00;99.90;;;;;;2075550;28;20567;-62
2023/03/26 02:07:49;;;;;;;8.00;1.92;;;5.00;99.90;;;;;;2077345;28;20221;-62
2023/03/26 02:09:03;;;;;;;6.78;1.80;;;5.00;99.90;;;;;;2077627;28;20185;-63
2023/03/26 02:10:18;;;;;;;5.90;1.88;;;4.90;99.90;;;;;;2077278;28;20198;-62
2023/03/26 02:11:24;;;;;;;6.50;2.22;;;4.90;99.90;;;;;;2077269;28;20180;-62
2023/03/26 02:12:30;;;;;;;6.57;2.30;;;4.90;99.90;;;;;;2078078;28;20181;-62
2023/03/26 02:13:40;;;;;;;9.45;2.45;;;4.90;99.90;;;;;;2069313;28;20582;-62
2023/03/26 02:14:46;;;;;;;10.85;3.53;;;4.90;99.90;;;;;;2070956;28;20740;-63
2023/03/26 02:16:01;;;;;;;14.55;2.70;;;4.90;99.90;;;;;;2077947;28;20186;-62
2023/03/26 02:17:04;;;;;;;11.40;2.72;;;4.90;99.90;;;;;;2077902;28;20235;-62
2023/03/26 02:18:12;;;;;;;8.63;4.10;;;4.90;99.90;;;;;;2077914;28;20201;-62
2023/03/26 02:19:20;;;;;;;5.18;2.42;;;4.90;99.90;;;;;;2069062;28;20175;-61
2023/03/26 02:20:28;;;;;;;5.88;2.35;;;4.90;99.90;;;;;;2071303;28;20271;-62
2023/03/26 02:21:34;;;;;;;6.93;2.35;;;4.80;99.90;;;;;;2068948;28;20256;-62
2023/03/26 02:22:44;;;;;;;11.10;2.10;;;4.80;99.90;;;;;;2070881;28;20234;-62
2023/03/26 02:24:01;;;;;;;9.75;2.63;;;4.70;99.90;;;;;;2077818;28;20177;-62
2023/03/26 02:25:09;;;;;;;5.88;1.83;;;4.80;99.90;;;;;;2077554;28;20215;-62
2023/03/26 02:26:18;;;;;;;6.28;2.38;;;4.90;99.90;;;;;;2079080;28;20181;-62
2023/03/26 02:27:24;;;;;;;5.45;2.58;;;5.00;99.90;;;;;;2077525;28;20215;-62
2023/03/26 02:28:30;;;;;;;5.57;2.20;;;5.00;99.90;;;;;;2077901;28;20778;-62
2023/03/26 02:29:39;;;;;;;8.95;2.47;;;5.00;99.90;;;;;;2077837;28;20217;-62
2023/03/26 02:30:46;;;;;;;8.00;2.33;;;5.10;99.90;;;;;;2077873;28;20638;-62
2023/03/26 02:31:51;;;;;;;4.88;1.70;;;5.10;99.90;;;;;;2077727;28;20185;-62
2023/03/26 02:32:58;;;;;;;8.15;1.92;;;5.00;99.90;;;;;;2077612;28;20583;-60
2023/03/26 02:34:04;;;;;;;6.82;1.52;;;5.10;99.90;;;;;;2077521;28;20204;-61
2023/03/26 02:35:11;;;;;;;9.10;2.15;;;5.10;99.90;;;;;;2077629;28;20197;-62
2023/03/26 02:36:23;;;;;;;3.55;1.42;;;5.10;99.90;;;;;;2077492;28;20246;-62
2023/03/26 02:37:29;;;;;;;4.30;1.45;;;5.10;99.90;;;;;;2074725;28;20294;-62
2023/03/26 02:38:35;;;;;;;3.50;1.48;;;5.00;99.90;;;;;;2079480;28;20220;-63
2023/03/26 02:39:41;;;;;;;5.57;1.10;;;5.10;99.90;;;;;;2074417;28;20198;-62
2023/03/26 02:40:46;;;;;;;8.02;1.55;;;5.10;99.90;;;;;;2077840;28;20185;-63
2023/03/26 02:41:52;;;;;;;4.85;1.77;;;5.20;99.90;;;;;;2077381;28;20197;-62
2023/03/26 02:42:58;;;;;;;5.82;1.50;;;5.20;99.90;;;;;;2077681;28;20882;-60
2023/03/26 02:44:04;;;;;;;7.57;1.67;;;5.20;99.90;;;;;;2077531;28;20275;-62
2023/03/26 02:45:09;;;;;;;4.00;1.52;;;5.10;99.90;;;;;;2077511;28;20212;-62
2023/03/26 02:46:15;;;;;;;6.85;1.90;;;5.20;99.90;;;;;;2077627;28;20189;-63
2023/03/26 02:47:21;;;;;;;6.38;1.83;;;5.20;99.90;;;;;;2076621;28;20561;-62
2023/03/26 02:48:26;;;;;;;6.50;1.40;;;5.20;99.90;;;;;;2077709;28;20208;-62
2023/03/26 02:49:32;;;;;;;3.00;1.45;;;5.30;99.90;;;;;;2077623;28;20757;-63
2023/03/26 02:50:38;;;;;;;5.80;1.40;;;5.30;99.90;;;;;;2077626;28;20189;-62
2023/03/26 02:51:44;;;;;;;7.35;1.48;;;5.30;99.90;;;;;;2077611;28;20263;-63
2023/03/26 02:52:50;;;;;;;7.55;1.75;;;5.40;99.90;;;;;;2077666;28;20190;-63
2023/03/26 02:53:55;;;;;;;5.20;1.60;;;5.30;99.90;;;;;;2077782;28;20280;-63
2023/03/26 02:55:01;;;;;;;5.18;1.98;;;5.20;99.90;;;;;;2069142;28;20204;-63
2023/03/26 02:56:05;;;;;;;5.82;1.65;;;5.20;99.90;;;;;;2068901;28;20190;-63
2023/03/26 02:57:10;;;;;;;6.82;1.92;;;5.30;99.90;;;;;;2075749;28;20219;-63
2023/03/26 02:58:16;;;;;;;5.93;1.73;;;5.20;99.90;;;;;;2077799;28;20189;-63
2023/03/26 02:59:21;;;;;;;6.65;1.80;;;5.10;99.90;;;;;;2077492;28;20195;-63
2023/03/26 03:00:27;;;;;;;6.28;2.15;;;5.10;99.90;;;;;;2077330;28;20215;-63
2023/03/26 03:01:33;;;;;;;4.40;1.92;;;5.10;99.90;;;;;;2071132;28;20787;-63
2023/03/26 03:02:39;;;;;;;7.40;2.10;;;5.10;99.90;;;;;;2072863;28;20197;-63
2023/03/26 03:03:48;;;;;;;6.38;2.28;;;5.10;99.90;;;;;;2077653;28;20239;-63
2023/03/26 03:05:00;;;;;;;5.05;1.92;;;5.10;99.90;;;;;;2079900;28;20572;-63
2023/03/26 03:06:05;;;;;;;6.30;1.90;;;5.10;99.90;;;;;;2073728;28;20209;-63
2023/03/26 03:07:13;;;;;;;4.93;1.95;;;5.10;99.90;;;;;;2077387;28;20653;-63
2023/03/26 03:08:20;;;;;;;6.63;1.92;;;5.10;99.90;;;;;;2077340;28;20193;-63
2023/03/26 03:09:26;;;;;;;7.60;1.67;;;5.20;99.90;;;;;;2077528;28;20178;-62
2023/03/26 03:10:32;;;;;;;9.43;1.63;;;5.10;99.90;;;;;;2077688;28;20194;-63
2023/03/26 03:11:39;;;;;;;4.72;1.38;;;5.20;99.90;;;;;;2077447;28;20170;-63
2023/03/26 03:12:45;;;;;;;4.68;1.35;;;5.40;99.90;;;;;;2077569;28;20246;-63
2023/03/26 03:13:52;;;;;;;7.88;1.60;;;5.30;99.90;;;;;;2077408;28;20678;-63
2023/03/26 03:14:58;;;;;;;4.75;1.85;;;5.40;99.90;;;;;;2077217;28;20184;-63
2023/03/26 03:16:04;;;;;;;5.10;1.60;;;5.40;99.90;;;;;;2077197;28;20236;-63
2023/03/26 03:17:09;;;;;;;7.38;1.70;;;5.40;99.90;;;;;;2077275;28;20219;-63
2023/03/26 03:18:15;;;;;;;3.75;1.40;;;5.50;99.90;;;;;;2077905;28;20221;-61
2023/03/26 03:19:21;;;;;;;4.75;1.60;;;5.50;99.90;;;;;;2077549;28;20217;-63
2023/03/26 03:20:29;;;;;;;2.58;1.67;;;5.50;99.90;;;;;;2077710;28;20181;-63
2023/03/26 03:21:34;;;;;;;3.67;1.35;;;5.40;99.90;;;;;;2079152;28;20257;-63
2023/03/26 03:22:41;;;;;;;11.40;1.92;;;5.40;99.90;;;;;;2083025;28;20181;-63
2023/03/26 03:23:46;;;;;;;8.07;1.40;;;5.40;99.90;;;;;;2079794;28;20255;-63
2023/03/26 03:24:56;;;;;;;3.65;1.52;;;5.50;99.90;;;;;;2077647;28;20196;-63
2023/03/26 03:26:02;;;;;;;3.75;1.20;;;5.50;99.90;;;;;;2077770;28;20185;-63
2023/03/26 03:27:04;;;;;;;7.20;1.58;;;5.50;99.90;;;;;;2077355;28;20534;-62
2023/03/26 03:28:10;;;;;;;6.72;1.63;;;5.50;99.90;;;;;;2077368;28;20215;-63
2023/03/26 03:29:16;;;;;;;8.73;1.83;;;5.50;99.90;;;;;;2077331;28;20711;-61
2023/03/26 03:30:22;;;;;;;4.65;1.48;;;5.30;99.90;;;;;;2078788;28;20334;-63
2023/03/26 03:31:27;;;;;;;7.18;1.60;;;5.30;99.90;;;;;;2076889;28;20181;-63
2023/03/26 03:32:33;;;;;;;3.22;1.42;;;5.20;99.90;;;;;;2077656;28;20661;-63
2023/03/26 03:33:41;;;;;;;8.68;2.05;;;5.20;99.90;;;;;;2077254;28;20189;-62
2023/03/26 03:34:51;;;;;;;5.18;1.80;;;5.20;99.90;;;;;;2077501;28;20179;-63
2023/03/26 03:35:58;;;;;;;4.90;1.80;;;5.20;99.90;;;;;;2077447;28;20188;-63
2023/03/26 03:37:04;;;;;;;6.40;1.75;;;5.20;99.90;;;;;;2079630;28;20209;-63
2023/03/26 03:38:10;;;;;;;8.25;1.92;;;5.20;99.90;;;;;;2068469;28;20856;-63
2023/03/26 03:39:15;;;;;;;5.63;1.80;;;5.20;99.90;;;;;;2069993;28;20187;-62
2023/03/26 03:40:21;;;;;;;3.95;1.90;;;5.20;99.90;;;;;;2077115;28;20565;-63
2023/03/26 03:41:28;;;;;;;6.38;2.33;;;5.20;99.90;;;;;;2077057;28;20243;-63
2023/03/26 03:42:34;;;;;;;5.05;1.60;;;5.20;99.90;;;;;;2077362;28;20205;-62
2023/03/26 03:43:40;;;;;;;4.38;1.63;;;5.30;99.90;;;;;;2077413;28;20193;-63
2023/03/26 03:44:45;;;;;;;6.18;1.42;;;5.30;99.90;;;;;;2077776;28;20573;-63
2023/03/26 03:45:51;;;;;;;8.40;1.70;;;5.30;99.90;;;;;;2077552;28;20186;-63
2023/03/26 03:46:57;;;;;;;6.13;1.80;;;5.40;99.90;;;;;;2077523;28;20213;-63
2023/03/26 03:48:03;;;;;;;4.53;1.90;;;5.40;99.90;;;;;;2080804;28;20554;-63
2023/03/26 03:49:04;;;;;;;8.15;2.08;;;5.40;99.90;;;;;;2077262;28;20259;-63
2023/03/26 03:50:10;;;;;;;7.60;2.10;;;5.30;99.90;;;;;;2077077;28;20645;-63
2023/03/26 03:51:17;;;;;;;8.18;1.95;;;5.30;99.90;;;;;;2068544;28;20671;-63
2023/03/26 03:52:23;;;;;;;7.53;1.80;;;5.30;99.90;;;;;;2070125;28;20216;-63
2023/03/26 03:53:29;;;;;;;5.63;1.50;;;5.20;99.90;;;;;;2077154;28;20224;-62
2023/03/26 03:54:34;;;;;;;5.40;1.38;;;5.20;99.90;;;;;;2077106;28;20282;-63
2023/03/26 03:55:41;;;;;;;8.25;1.92;;;5.20;99.90;;;;;;2077354;28;20221;-63
2023/03/26 03:56:47;;;;;;;10.80;2.28;;;5.20;99.90;;;;;;2077020;28;20189;-63
2023/03/26 03:57:53;;;;;;;7.43;2.00;;;5.10;99.90;;;;;;2077054;28;20208;-63
2023/03/26 03:58:59;;;;;;;4.75;1.60;;;5.20;99.90;;;;;;2077032;28;20200;-63
2023/03/26 04:00:10;;;;;;;10.77;2.13;;;5.20;99.90;;;;;;2077081;28;20280;-63
2023/03/26 04:01:17;;;;;;;4.82;1.77;;;5.20;99.90;;;;;;2077141;28;20271;-63
2023/03/26 04:02:33;;;;;;;5.35;1.63;;;5.20;99.90;;;;;;2077302;28;20917;-63
2023/03/26 04:03:39;;;;;;;6.30;1.88;;;5.30;99.90;;;;;;2079508;28;20189;-62
2023/03/26 04:04:45;;;;;;;5.40;1.90;;;5.20;99.90;;;;;;2076887;28;20221;-63
2023/03/26 04:05:53;;;;;;;8.13;2.10;;;5.10;99.90;;;;;;2077277;28;20236;-63
2023/03/26 04:06:59;;;;;;;7.68;1.85;;;5.00;99.90;;;;;;2068681;28;20202;-63
2023/03/26 04:08:05;;;;;;;6.93;1.88;;;5.00;99.90;;;;;;2069907;28;20682;-63
2023/03/26 04:09:09;;;;;;;6.40;2.33;;;5.00;99.90;;;;;;2077325;28;20235;-63
2023/03/26 04:10:15;;;;;;;4.30;1.75;;;4.90;99.90;;;;;;2077167;28;20199;-63
2023/03/26 04:11:22;;;;;;;4.43;1.80;;;5.00;99.90;;;;;;2076519;28;20272;-63
2023/03/26 04:12:29;;;;;;;5.18;2.05;;;5.10;99.90;;;;;;2076946;28;20182;-63
2023/03/26 04:13:35;;;;;;;8.15;1.70;;;5.10;99.90;;;;;;2076770;28;20291;-63
2023/03/26 04:14:41;;;;;;;5.35;1.50;;;5.10;99.90;;;;;;2076957;28;20185;-63
2023/03/26 04:15:47;;;;;;;3.80;1.83;;;5.20;99.90;;;;;;2076740;28;20195;-63
2023/03/26 04:16:53;;;;;;;8.55;1.88;;;5.20;99.90;;;;;;2076962;28;20188;-63
2023/03/26 04:17:59;;;;;;;7.22;1.98;;;5.20;99.90;;;;;;2076992;28;20311;-63
2023/03/26 04:19:04;;;;;;;5.28;1.73;;;5.20;99.90;;;;;;2076879;28;20212;-63
2023/03/26 04:20:14;;;;;;;3.88;1.58;;;5.10;99.90;;;;;;2076837;28;20201;-63
2023/03/26 04:21:20;;;;;;;4.72;1.23;;;5.10;99.90;;;;;;2076477;28;20184;-63
2023/03/26 04:22:35;;;;;;;10.68;1.75;;;5.10;99.90;;;;;;2076885;28;20252;-63
2023/03/26 04:23:44;;;;;;;4.07;1.48;;;5.10;99.90;;;;;;2077008;28;20177;-63
2023/03/26 04:24:53;;;;;;;6.55;1.58;;;5.10;99.90;;;;;;2078712;28;20201;-62
2023/03/26 04:26:03;;;;;;;5.28;1.48;;;5.10;99.90;;;;;;2077217;28;20255;-63
2023/03/26 04:27:16;;;;;;;7.63;2.20;;;5.20;99.90;;;;;;2080011;28;20187;-63
2023/03/26 04:28:34;;;;;;;4.45;1.65;;;5.20;99.90;;;;;;2068342;28;20197;-62
2023/03/26 04:29:43;;;;;;;9.23;1.80;;;5.20;99.90;;;;;;2071565;28;20677;-62
2023/03/26 04:30:52;;;;;;;8.65;1.95;;;5.20;99.90;;;;;;2076932;28;20714;-62
2023/03/26 04:32:05;;;;;;;8.13;2.10;;;5.40;99.90;;;;;;2079762;28;20590;-63
2023/03/26 04:33:14;;;;;;;5.45;2.53;;;5.20;99.90;;;;;;2076774;28;20257;-62
2023/03/26 04:34:23;;;;;;;6.00;1.60;;;5.20;99.90;;;;;;2076859;28;20184;-63
2023/03/26 04:35:34;;;;;;;8.32;2.05;;;5.10;99.90;;;;;;2076812;28;20186;-63
2023/03/26 04:36:45;;;;;;;6.88;1.92;;;5.10;99.90;;;;;;2080365;28;20693;-63
2023/03/26 04:37:51;;;;;;;4.50;1.50;;;5.00;99.90;;;;;;2077760;28;20193;-62
2023/03/26 04:39:01;;;;;;;6.47;1.65;;;5.00;99.90;;;;;;2076938;28;20213;-63
2023/03/26 04:40:19;;;;;;;5.82;1.58;;;5.00;99.90;;;;;;2060664;28;20268;-63
2023/03/26 04:41:27;;;;;;;6.82;1.60;;;5.10;99.90;;;;;;2066429;28;20185;-63
2023/03/26 04:42:36;;;;;;;5.57;1.42;;;5.10;99.90;;;;;;2080878;28;20180;-63
2023/03/26 04:43:46;;;;;;;5.82;1.48;;;5.10;99.90;;;;;;2077108;28;20550;-62
2023/03/26 04:44:51;;;;;;;4.97;1.52;;;5.20;99.90;;;;;;2076888;28;20185;-62
2023/03/26 04:45:57;;;;;;;7.32;1.40;;;5.30;99.90;;;;;;2076690;28;20634;-63
2023/03/26 04:47:03;;;;;;;5.55;1.75;;;5.30;99.90;;;;;;2076655;28;20272;-62
2023/03/26 04:48:06;;;;;;;4.25;1.40;;;5.30;99.90;;;;;;2076752;28;20562;-64
2023/03/26 04:49:09;;;;;;;4.60;1.60;;;5.40;99.90;;;;;;2076621;28;20292;-63
2023/03/26 04:50:16;;;;;;;7.50;1.92;;;5.30;99.90;;;;;;2076794;28;20191;-62
2023/03/26 04:51:26;;;;;;;4.60;1.20;;;5.20;99.90;;;;;;2076671;28;20531;-63
2023/03/26 04:52:33;;;;;;;6.15;1.63;;;5.10;99.90;;;;;;2076081;28;20208;-63
2023/03/26 04:53:38;;;;;;;5.20;1.73;;;5.00;99.90;;;;;;2069089;28;20243;-63
2023/03/26 04:54:44;;;;;;;7.28;1.80;;;5.00;99.90;;;;;;2073569;28;21174;-62
2023/03/26 04:55:58;;;;;;;8.77;1.50;;;5.00;99.90;;;;;;2077056;28;20308;-63
2023/03/26 04:57:36;;;;;;;6.07;1.63;;;5.00;99.90;;;;;;2069434;28;20188;-63
2023/03/26 04:58:42;;;;;;;5.82;1.50;;;5.00;99.90;;;;;;2072663;28;20184;-63
2023/03/26 04:59:48;;;;;;;11.27;2.13;;;5.10;99.90;;;;;;2076821;28;20188;-63
2023/03/26 05:00:56;;;;;;;8.80;1.77;;;5.10;99.90;;;;;;2076633;28;20185;-63
2023/03/26 05:02:04;;;;;;;8.05;1.75;;;5.10;99.90;;;;;;2076558;28;20191;-63
2023/03/26 05:03:12;;;;;;;5.45;1.40;;;5.10;99.90;;;;;;2076518;28;20268;-63
2023/03/26 05:04:18;;;;;;;4.30;1.23;;;5.20;99.90;;;;;;2077072;28;20236;-63
2023/03/26 05:05:26;;;;;;;9.27;1.77;;;5.10;99.90;;;;;;2076915;28;20213;-63
2023/03/26 05:06:33;;;;;;;4.75;1.25;;;5.10;99.90;;;;;;2076410;28;20244;-63
2023/03/26 05:07:40;;;;;;;2.33;1.02;;;5.00;99.90;;;;;;2070756;28;20257;-63
2023/03/26 05:08:46;;;;;;;9.15;1.65;;;4.90;99.90;;;;;;2069748;28;20217;-63
2023/03/26 05:09:52;;;;;;;8.20;1.50;;;5.00;99.90;;;;;;2076615;28;20663;-63
2023/03/26 05:10:57;;;;;;;7.53;2.22;;;5.00;99.90;;;;;;2077508;28;20188;-63
2023/03/26 05:12:03;;;;;;;5.30;1.70;;;5.00;99.90;;;;;;2077858;28;20260;-63
2023/03/26 05:13:04;;;;;;;4.18;1.40;;;5.10;99.90;;;;;;2078341;28;20220;-63
2023/03/26 05:14:09;;;;;;;4.95;2.00;;;5.00;99.90;;;;;;2078433;28;20730;-63
2023/03/26 05:15:15;;;;;;;6.65;1.90;;;5.00;99.90;;;;;;2078399;28;20231;-63
2023/03/26 05:16:22;;;;;;;6.03;1.67;;;5.00;99.90;;;;;;2078153;28;20634;-62
2023/03/26 05:17:29;;;;;;;4.65;1.70;;;5.00;99.90;;;;;;2078484;28;20212;-63
2023/03/26 05:18:35;;;;;;;5.88;1.90;;;5.00;99.90;;;;;;2078353;28;20241;-63
2023/03/26 05:19:41;;;;;;;6.80;1.92;;;4.90;99.90;;;;;;2081571;28;20212;-62
2023/03/26 05:20:46;;;;;;;5.78;1.98;;;5.00;99.90;;;;;;2084440;28;20177;-63
2023/03/26 05:21:52;;;;;;;9.45;2.38;;;5.00;99.90;;;;;;2082152;28;20192;-62
2023/03/26 05:22:58;;;;;;;9.07;1.92;;;4.90;99.90;;;;;;2078847;28;20680;-62
2023/03/26 05:24:05;;;;;;;8.43;1.80;;;4.90;99.90;;;;;;2078615;28;20280;-62
2023/03/26 05:25:11;;;;;;;5.60;1.70;;;4.90;99.90;;;;;;2078407;28;20223;-63
2023/03/26 05:26:17;;;;;;;5.45;1.77;;;4.90;99.90;;;;;;2078404;28;20193;-63
2023/03/26 05:27:23;;;;;;;6.47;1.73;;;4.90;99.90;;;;;;2078461;28;20185;-62
2023/03/26 05:28:29;;;;;;;5.65;1.65;;;4.80;99.90;;;;;;2078233;28;20197;-63
2023/03/26 05:29:34;;;;;;;6.88;2.10;;;4.80;99.90;;;;;;2078663;28;20194;-62
2023/03/26 05:30:42;;;;;;;12.43;3.40;;;4.80;99.90;;;;;;2078316;28;20170;-61
2023/03/26 05:31:48;;;;;;;5.70;2.00;;;4.80;99.90;;;;;;2071205;28;20194;-62
2023/03/26 05:32:53;;;;;;;15.35;3.00;;;4.80;99.90;;;;;;2073661;28;20207;-62
2023/03/26 05:33:59;;;;;;;11.18;2.92;;;4.80;99.90;;;;;;2078580;28;20213;-62
2023/03/26 05:35:06;;;;;;;5.40;2.78;;;4.80;99.90;;;;;;2081682;28;20204;-62
2023/03/26 05:36:14;;;;;;;7.03;2.65;;;4.80;99.90;;;;;;2078196;28;20212;-62
2023/03/26 05:37:23;;;;;;;3.28;1.65;;;4.70;99.90;;;;;;2078970;28;20201;-61
2023/03/26 05:38:30;;;;;;;10.00;3.83;;;4.70;99.90;;;;;;2080909;28;20267;-62
2023/03/26 05:39:36;;;;;;;7.60;2.92;;;4.60;99.90;;;;;;2078402;28;20609;-61
2023/03/26 05:40:41;;;;;;;5.00;2.30;;;4.60;99.90;;;;;;2078074;28;20186;-61
2023/03/26 05:41:47;;;;;;;12.02;2.35;;;4.70;99.90;;;;;;2078038;28;20197;-62
2023/03/26 05:42:53;;;;;;;7.30;2.20;;;4.70;99.90;;;;;;2078009;28;20197;-62
2023/03/26 05:43:59;;;;;;;6.22;2.10;;;4.70;99.90;;;;;;2078340;28;20198;-61
2023/03/26 05:45:06;;;;;;;5.50;2.50;;;4.70;99.90;;;;;;2077704;28;20658;-62
2023/03/26 05:46:14;;;;;;;6.65;3.10;;;4.80;99.90;;;;;;2081408;28;20201;-61
2023/03/26 05:47:19;;;;;;;8.57;3.58;;;4.80;99.90;;;;;;2077977;28;20197;-62
2023/03/26 05:48:25;;;;;;;7.35;2.97;;;4.80;99.90;;;;;;2078097;28;20174;-62
2023/03/26 05:49:31;;;;;;;7.03;2.38;;;4.80;99.90;;;;;;2078289;28;20666;-61
2023/03/26 05:50:37;;;;;;;9.60;2.35;;;4.80;99.90;;;;;;2078162;28;20260;-62
2023/03/26 05:51:42;;;;;;;9.23;2.22;;;4.80;99.90;;;;;;2077822;28;20189;-64
2023/03/26 05:52:48;;;;;;;5.93;2.55;;;4.80;99.90;;;;;;2077979;28;20548;-61
2023/03/26 05:53:54;;;;;;;7.28;2.40;;;4.90;99.90;;;;;;2078508;28;20296;-62
2023/03/26 05:55:00;;;;;;;7.13;2.35;;;4.90;99.90;;;;;;2078313;28;20212;-61
2023/03/26 05:56:05;;;;;;;9.50;2.20;;;4.90;99.90;;;;;;2078479;28;20219;-61
2023/03/26 05:57:09;;;;;;;4.03;2.03;;;4.90;99.90;;;;;;2077956;28;20262;-61
2023/03/26 05:58:15;;;;;;;6.30;2.17;;;4.90;99.90;;;;;;2078432;28;20208;-62
2023/03/26 05:59:22;;;;;;;8.75;2.00;;;4.80;99.90;;;;;;2078227;28;20181;-62
2023/03/26 06:00:28;;;;;;;5.47;1.60;;;4.90;99.90;;;;;;2069228;28;20194;-62
2023/03/26 06:01:33;;;;;;;8.05;2.35;;;4.90;99.90;;;;;;2070342;28;20190;-62
2023/03/26 06:02:41;;;;;;;10.98;2.05;;;4.80;99.90;;;;;;2077974;28;20215;-61